Data for 02/13/2015

Time Sea-Level Adjusted Pressure Absolute Pressure Temperature Relative Humidity Dew Point   
(mb) (inHg) (mb) (inHg) (C) (F) (%) (C) (F)
00:05 1025 30.27 854 25.22 8.1 46.5 40 -4.8 23.4
00:10 1025 30.27 854 25.22 8.1 46.5 41 -4.5 24
00:15 1025 30.27 854 25.22 7.9 46.2 40 -4.7 23.5
00:20 1025 30.27 854 25.22 7.9 46.2 40 -4.8 23.4
00:25 1025 30.27 854 25.22 7.8 46 40 -5 23
00:30 1025 30.27 854 25.22 7.8 46 40 -4.9 23.2
00:35 1025 30.27 854 25.22 7.6 45.8 40 -5 23
00:40 1025 30.27 854 25.22 7.6 45.6 41 -5 23
00:45 1025 30.27 854 25.22 7.4 45.3 41 -5 23.1
00:50 1025 30.27 854 25.22 7.1 44.7 43 -4.5 23.9
00:55 1025 30.27 854 25.22 6.1 43 48 -4 24.7
01:00 1025 30.27 855 25.25 5 41 52 -4 24.9
01:05 1025 30.27 855 25.25 4.5 40 52 -4.5 23.9
01:10 1025 30.27 855 25.25 4.3 39.8 53 -4.4 24.1
01:15 1026 30.3 855 25.25 4.2 39.6 53 -4.6 23.8
01:20 1026 30.3 855 25.25 4.2 39.6 53 -4.4 24.1
01:25 1026 30.3 855 25.25 4.2 39.6 52 -4.7 23.6
01:30 1026 30.3 855 25.25 4.2 39.6 54 -4.3 24.2
01:35 1026 30.3 855 25.25 4.1 39.3 54 -4.5 23.9
01:40 1026 30.3 855 25.25 3.8 38.8 54 -4.8 23.4
01:45 1026 30.3 855 25.25 3.9 38.9 53 -4.8 23.4
01:50 1026 30.3 855 25.25 4 39.2 54 -4.6 23.8
01:55 1026 30.3 855 25.25 4.1 39.3 53 -4.6 23.8
02:00 1026 30.3 855 25.25 4.1 39.4 50 -5.3 22.4
02:05 1026 30.3 855 25.25 5.2 41.3 47 -5.3 22.4
02:10 1026 30.3 855 25.25 4.8 40.7 51 -4.6 23.8
02:15 1026 30.3 855 25.25 4.3 39.7 51 -4.9 23.1
02:20 1026 30.3 855 25.25 4.1 39.3 52 -4.8 23.3
02:25 1026 30.3 855 25.25 4.1 39.4 51 -5.1 22.7
02:30 1026 30.3 855 25.25 4.2 39.5 51 -5 23.1
02:35 1026 30.3 855 25.25 4.2 39.6 50 -5.3 22.4
02:40 1026 30.3 855 25.25 4.5 40.1 50 -4.9 23.1
02:45 1026 30.3 855 25.25 4.2 39.6 50 -5.3 22.4
02:50 1026 30.3 855 25.25 4.4 40 50 -5 23
02:55 1026 30.3 855 25.25 4.2 39.5 51 -5 23
03:00 1026 30.3 855 25.25 3.9 39 51 -5.4 22.4
03:05 1026 30.3 855 25.25 4.2 39.6 50 -5.2 22.7
03:10 1026 30.3 855 25.25 3.9 39 52 -5 23.1
03:15 1026 30.3 855 25.25 3.1 37.5 55 -5.1 22.7
03:20 1026 30.3 855 25.25 3 37.4 53 -5.6 21.8
03:25 1026 30.3 855 25.25 3.2 37.7 51 -5.9 21.3
03:30 1026 30.3 855 25.25 3.6 38.5 49 -6.2 20.8
03:35 1026 30.3 855 25.25 4.1 39.4 48 -6 21.2
03:40 1026 30.3 855 25.25 4 39.2 48 -6 21.2
03:45 1026 30.3 856 25.28 3.8 38.9 49 -5.8 21.5
03:50 1026 30.3 856 25.28 3.8 38.9 49 -6 21.2
03:55 1026 30.3 856 25.28 3.9 39 50 -5.7 21.7
04:00 1027 30.33 856 25.28 3.8 38.9 50 -5.7 21.8
04:05 1026 30.3 856 25.28 3.7 38.6 51 -5.4 22.3
04:10 1026 30.3 856 25.28 3.5 38.3 52 -5.5 22.1
04:15 1026 30.3 856 25.28 3.6 38.5 51 -5.5 22.1
04:20 1026 30.3 856 25.28 3.9 39.1 48 -6 21.2
04:25 1026 30.3 856 25.28 4.1 39.4 49 -5.7 21.7
04:30 1026 30.3 856 25.28 4 39.2 47 -6.3 20.7
04:35 1026 30.3 856 25.28 4.4 39.9 45 -6.5 20.3
04:40 1026 30.3 856 25.28 4.8 40.6 44 -6.3 20.6
04:45 1026 30.3 856 25.28 4.6 40.2 45 -6.3 20.6
04:50 1026 30.3 856 25.28 4.8 40.6 45 -6.1 21
04:55 1026 30.3 856 25.28 4.6 40.3 46 -6 21.2
05:00 1026 30.3 856 25.28 4.5 40.1 46 -6.2 20.9
05:05 1026 30.3 856 25.28 4.5 40.1 47 -5.9 21.4
05:10 1026 30.3 856 25.28 4.2 39.5 48 -6 21.2
05:15 1026 30.3 856 25.28 4 39.2 47 -6.2 20.9
05:20 1026 30.3 856 25.28 4.1 39.4 48 -6 21.2
05:25 1026 30.3 856 25.28 4.1 39.4 47 -6.3 20.6
05:30 1027 30.33 856 25.28 4.2 39.5 47 -6 21.2
05:35 1027 30.33 856 25.28 4.2 39.5 47 -6.2 20.9
05:40 1027 30.33 856 25.28 4.2 39.5 46 -6.3 20.6
05:45 1027 30.33 856 25.28 4.2 39.6 46 -6.3 20.7
05:50 1027 30.33 856 25.28 4.2 39.6 46 -6.3 20.6
05:55 1027 30.33 856 25.28 4.5 40.2 45 -6.3 20.7
06:00 1027 30.33 856 25.28 4.8 40.7 44 -6.4 20.5
06:05 1027 30.33 856 25.28 4.6 40.3 46 -6.2 20.9
06:10 1027 30.33 856 25.28 4.5 40.1 43 -7.1 19.2
06:15 1027 30.33 856 25.28 5.2 41.4 40 -7.3 18.8
06:20 1027 30.33 856 25.28 5.5 41.9 37 -7.9 17.7
06:25 1027 30.33 856 25.28 5.9 42.6 36 -8 17.7
06:30 1027 30.33 856 25.28 5.4 41.7 43 -6.3 20.6
06:35 1027 30.33 856 25.28 4.7 40.4 43 -7 19.4
06:40 1027 30.33 856 25.28 4.9 40.7 41 -7.2 19
06:45 1027 30.33 856 25.28 4.8 40.6 48 -5.2 22.6
06:50 1027 30.33 856 25.28 3.5 38.2 54 -5 23
06:55 1027 30.33 856 25.28 3 37.3 52 -5.9 21.3
07:00 1027 30.33 856 25.28 3.5 38.3 49 -6.2 20.9
07:05 1027 30.33 856 25.28 3.9 39 49 -5.9 21.4
07:10 1027 30.33 856 25.28 3.8 38.9 50 -5.6 21.9
07:15 1027 30.33 856 25.28 3.9 38.9 47 -6.5 20.2
07:20 1027 30.33 856 25.28 4.3 39.7 43 -7.1 19.2
07:25 1027 30.33 856 25.28 4.7 40.4 42 -7.2 19.1
07:30 1027 30.33 856 25.28 4.9 40.8 40 -7.5 18.5
07:35 1027 30.33 856 25.28 5.1 41.2 40 -7.3 18.9
07:40 1027 30.33 856 25.28 5.2 41.3 42 -6.8 19.8
07:45 1027 30.33 856 25.28 5.1 41.2 43 -6.5 20.3
07:50 1027 30.33 856 25.28 5 41 41 -7 19.4
07:55 1027 30.33 856 25.28 5 41 44 -6.3 20.7
08:00 1027 30.33 856 25.28 4.7 40.5 44 -6.5 20.3
08:05 1027 30.33 856 25.28 4.7 40.4 43 -6.7 19.9
08:10 1027 30.33 856 25.28 4.9 40.8 42 -6.9 19.5
08:15 1027 30.33 856 25.28 5.1 41.2 42 -6.7 20
08:20 1027 30.33 856 25.28 5.1 41.1 43 -6.6 20.1
08:25 1027 30.33 856 25.28 4.9 40.8 44 -6.3 20.6
08:30 1027 30.33 856 25.28 4.6 40.3 46 -6 21.2
08:35 1027 30.33 856 25.28 4.2 39.6 51 -5 23.1
08:40 1027 30.33 856 25.28 3.4 38.2 52 -5.4 22.3
08:45 1027 30.33 857 25.31 3.3 38 51 -5.9 21.4
08:50 1027 30.33 857 25.31 3.5 38.3 49 -6.3 20.6
08:55 1027 30.33 857 25.31 4 39.2 47 -6.4 20.5
09:00 1027 30.33 857 25.31 4.7 40.5 45 -6.3 20.7
09:05 1027 30.33 857 25.31 5.2 41.4 43 -6.4 20.5
09:10 1027 30.33 857 25.31 5.5 41.9 42 -6.5 20.3
09:15 1027 30.33 857 25.31 5.7 42.3 43 -5.9 21.5
09:20 1027 30.33 857 25.31 5.8 42.4 43 -5.7 21.7
09:25 1027 30.33 857 25.31 5.9 42.5 42 -6.2 20.8
09:30 1027 30.33 856 25.28 6 42.7 41 -6.2 20.8
09:35 1027 30.33 856 25.28 6.4 43.6 40 -6.1 20.9
09:40 1027 30.33 856 25.28 7 44.6 39 -5.9 21.4
09:45 1027 30.33 856 25.28 7 44.6 37 -6.7 20
09:50 1027 30.33 857 25.31 7.3 45.2 38 -6.1 21.1
09:55 1027 30.33 857 25.31 8.1 46.5 34 -6.8 19.7
10:00 1027 30.33 857 25.31 9 48.3 31 -7.1 19.3
10:05 1027 30.33 857 25.31 9.8 49.6 31 -6.4 20.5
10:10 1027 30.33 857 25.31 10.1 50.3 30 -6.4 20.4
10:15 1027 30.33 857 25.31 9.8 49.6 35 -5 23
10:20 1027 30.33 857 25.31 9.1 48.4 36 -5.1 22.8
10:25 1027 30.33 857 25.31 8.8 47.8 38 -4.8 23.3
10:30 1027 30.33 857 25.31 8.8 47.9 36 -5.3 22.4
10:35 1027 30.33 857 25.31 8.9 48 37 -5.1 22.7
10:40 1027 30.33 857 25.31 9.4 48.9 36 -5 22.9
10:45 1027 30.33 857 25.31 9.4 48.9 34 -5.6 22
10:50 1027 30.33 857 25.31 9.7 49.4 33 -5.6 21.9
10:55 1027 30.33 857 25.31 10.3 50.6 32 -5.5 22.1
11:00 1027 30.33 856 25.28 10.6 51.1 30 -6 21.1
11:05 1027 30.33 856 25.28 11.3 52.3 29 -5.9 21.3
11:10 1027 30.33 856 25.28 11.8 53.2 29 -5.6 22
11:15 1027 30.33 856 25.28 11.9 53.3 29 -5.8 21.6
11:20 1027 30.33 856 25.28 12 53.6 29 -5.5 22.2
11:25 1027 30.33 856 25.28 11.9 53.4 29 -5.7 21.8
11:30 1027 30.33 856 25.28 12.1 53.8 27 -6.3 20.7
11:35 1027 30.33 856 25.28 11.8 53.3 28 -5.9 21.5
11:40 1027 30.33 856 25.28 11.1 51.9 29 -6.4 20.5
11:45 1027 30.33 856 25.28 11.4 52.6 28 -6.5 20.2
11:50 1027 30.33 856 25.28 11.7 53 26 -6.9 19.5
11:55 1027 30.33 856 25.28 12 53.5 28 -6.1 21.1
12:00 1027 30.33 856 25.28 11.7 53.1 27 -6.6 20.1
12:05 1027 30.33 856 25.28 12.7 54.9 25 -6.5 20.2
12:10 1027 30.33 856 25.28 12.5 54.4 28 -5.5 22.1
12:15 1027 30.33 856 25.28 12.3 54.2 26 -6.5 20.2
12:20 1027 30.33 856 25.28 12.2 54 28 -5.7 21.8
12:25 1027 30.33 856 25.28 11.7 53 29 -5.5 22
12:30 1027 30.33 856 25.28 12.1 53.7 29 -5.5 22.1
12:35 1027 30.33 856 25.28 12.2 54 28 -5.9 21.5
12:40 1027 30.33 856 25.28 12.3 54.2 29 -5.2 22.6
12:45 1027 30.33 856 25.28 12.3 54.1 29 -5.4 22.2
12:50 1027 30.33 856 25.28 12.5 54.5 30 -4.7 23.5
12:55 1026 30.3 856 25.28 12.6 54.6 28 -5.5 22.1
13:00 1026 30.3 856 25.28 13 55.4 29 -4.6 23.7
13:05 1026 30.3 856 25.28 13.5 56.2 27 -4.9 23.1
13:10 1026 30.3 855 25.25 14.1 57.4 26 -5 23
13:15 1026 30.3 855 25.25 14.7 58.4 26 -4.5 23.8
13:20 1026 30.3 855 25.25 14.8 58.6 26 -4.6 23.7
13:25 1026 30.3 855 25.25 14.6 58.3 26 -4.6 23.8
13:30 1026 30.3 855 25.25 14.8 58.6 26 -4.5 24
13:35 1026 30.3 855 25.25 14.5 58.1 27 -4.1 24.6
13:40 1026 30.3 855 25.25 13.3 55.9 29 -4.4 24.1
13:45 1026 30.3 855 25.25 13.5 56.3 27 -5 23
13:50 1026 30.3 855 25.25 14.7 58.5 25 -4.9 23.3
13:55 1026 30.3 855 25.25 15 59 26 -4.4 24.1
14:00 1026 30.3 855 25.25 14.9 58.8 26 -4.4 24.1
14:05 1026 30.3 855 25.25 15.3 59.5 25 -4.8 23.3
14:10 1026 30.3 855 25.25 15.8 60.4 24 -4.8 23.3
14:15 1025 30.27 855 25.25 15.8 60.5 24 -4.6 23.8
14:20 1025 30.27 855 25.25 15.4 59.7 25 -4.2 24.4
14:25 1025 30.27 854 25.22 15.3 59.6 25 -4.7 23.5
14:30 1025 30.27 854 25.22 15.5 59.9 26 -4 24.8
14:35 1025 30.27 854 25.22 15.4 59.8 25 -4.4 24.1
14:40 1025 30.27 854 25.22 16 60.9 24 -4.7 23.6
14:45 1025 30.27 854 25.22 16 60.9 25 -3.8 25.2
14:50 1025 30.27 854 25.22 14.8 58.7 27 -3.8 25.2
14:55 1025 30.27 854 25.22 14.7 58.5 26 -4.2 24.4
15:00 1025 30.27 854 25.22 14.6 58.3 25 -4.9 23.2
15:05 1025 30.27 854 25.22 14.8 58.7 28 -3.5 25.8
15:10 1025 30.27 854 25.22 15.1 59.2 25 -4.8 23.4
15:15 1025 30.27 854 25.22 15.2 59.4 26 -4.2 24.4
15:20 1025 30.27 854 25.22 14.2 57.5 27 -4.6 23.8
15:25 1025 30.27 854 25.22 15.2 59.4 24 -5.1 22.9
15:30 1025 30.27 854 25.22 15.7 60.3 24 -4.6 23.8
15:35 1025 30.27 854 25.22 14.9 58.9 26 -4.4 24.1
15:40 1024 30.24 854 25.22 15 59.1 25 -5 23
15:45 1024 30.24 854 25.22 14.5 58.2 25 -5.4 22.2
15:50 1024 30.24 854 25.22 15.6 60.1 23 -5.2 22.7
15:55 1024 30.24 854 25.22 15.7 60.2 24 -5 23.1
16:00 1024 30.24 854 25.22 15.4 59.6 25 -4.7 23.5
16:05 1024 30.24 854 25.22 15.1 59.2 24 -5.4 22.2
16:10 1024 30.24 854 25.22 15.9 60.6 23 -5.1 22.7
16:15 1024 30.24 854 25.22 15.7 60.3 23 -5 22.9
16:20 1024 30.24 854 25.22 15.7 60.3 23 -5.4 22.3
16:25 1024 30.24 854 25.22 15.4 59.7 24 -5 23
16:30 1024 30.24 854 25.22 15.6 60 24 -4.8 23.3
16:35 1024 30.24 854 25.22 15.8 60.4 23 -4.9 23.1
16:40 1024 30.24 853 25.19 15.3 59.5 24 -5.1 22.8
16:45 1024 30.24 853 25.19 15.1 59.1 25 -4.9 23.2
16:50 1024 30.24 853 25.19 15.4 59.8 24 -5.1 22.8
16:55 1024 30.24 853 25.19 15.8 60.5 23 -4.9 23.1
17:00 1024 30.24 853 25.19 15.5 59.8 24 -5.2 22.7
17:05 1024 30.24 853 25.19 15.4 59.7 24 -5 22.9
17:10 1024 30.24 853 25.19 15.3 59.5 24 -5.1 22.9
17:15 1024 30.24 853 25.19 15 58.9 25 -4.6 23.6
17:20 1024 30.24 853 25.19 14.4 58 25 -5.2 22.7
17:25 1024 30.24 853 25.19 14.8 58.7 25 -4.7 23.5
17:30 1024 30.24 853 25.19 15 59.1 25 -4.7 23.5
17:35 1024 30.24 853 25.19 15.1 59.2 25 -4.9 23.1
17:40 1024 30.24 853 25.19 15.2 59.3 24 -5 22.9
17:45 1024 30.24 853 25.19 15.3 59.5 25 -4.8 23.4
17:50 1024 30.24 853 25.19 15.2 59.3 25 -4.9 23.2
17:55 1024 30.24 853 25.19 15.1 59.2 24 -5 23
18:00 1024 30.24 853 25.19 15.2 59.4 25 -4.6 23.7
18:05 1024 30.24 853 25.19 15.1 59.3 25 -4.4 24.1
18:10 1024 30.24 853 25.19 14.9 58.8 25 -4.7 23.5
18:15 1024 30.24 853 25.19 14.7 58.4 26 -4.7 23.5
18:20 1024 30.24 853 25.19 14.6 58.4 26 -4.6 23.8
18:25 1024 30.24 853 25.19 14.5 58.1 26 -4.6 23.7
18:30 1024 30.24 853 25.19 14.2 57.6 27 -4.6 23.7
18:35 1024 30.24 853 25.19 13.9 57 27 -4.7 23.5
18:40 1024 30.24 853 25.19 13.6 56.5 30 -3.6 25.6
18:45 1024 30.24 853 25.19 12.9 55.2 32 -3.4 25.9
18:50 1024 30.24 853 25.19 12.2 53.9 35 -2.9 26.7
18:55 1024 30.24 853 25.19 11.8 53.2 37 -2.5 27.5
19:00 1024 30.24 853 25.19 11.4 52.6 38 -2.3 27.9
19:05 1024 30.24 853 25.19 10.9 51.6 39 -2.4 27.7
19:10 1024 30.24 853 25.19 10.4 50.7 40 -2.5 27.5
19:15 1024 30.24 853 25.19 10 50.1 41 -2.6 27.3
19:20 1024 30.24 853 25.19 9.8 49.6 40 -3 26.6
19:25 1024 30.24 853 25.19 9.7 49.4 40 -3.1 26.4
19:30 1024 30.24 853 25.19 9.6 49.3 41 -3 26.7
19:35 1023 30.21 853 25.19 9.4 48.9 42 -3 26.6
19:40 1023 30.21 853 25.19 9.1 48.4 42 -3 26.5
19:45 1023 30.21 853 25.19 8.9 47.9 43 -3 26.6
19:50 1023 30.21 853 25.19 8.7 47.7 43 -3.1 26.4
19:55 1023 30.21 852 25.16 8.8 47.8 43 -3 26.5
20:00 1023 30.21 852 25.16 8.6 47.5 44 -3 26.7
20:05 1023 30.21 852 25.16 8.4 47.1 45 -2.9 26.8
20:10 1023 30.21 852 25.16 8.3 46.9 45 -2.9 26.8
20:15 1023 30.21 852 25.16 8.1 46.5 46 -3 26.7
20:20 1023 30.21 852 25.16 7.9 46.2 46 -3 26.6
20:25 1023 30.21 852 25.16 7.9 46.2 45 -3.2 26.3
20:30 1023 30.21 852 25.16 7.9 46.3 45 -3.2 26.3
20:35 1023 30.21 852 25.16 8.1 46.5 44 -3.4 25.9
20:40 1023 30.21 852 25.16 8 46.4 45 -3 26.5
20:45 1023 30.21 852 25.16 7.5 45.4 47 -3.1 26.4
20:50 1023 30.21 852 25.16 7.1 44.7 48 -3.1 26.4
20:55 1023 30.21 852 25.16 6.8 44.3 49 -3.2 26.3
21:00 1023 30.21 852 25.16 6.7 44 50 -3.1 26.5
21:05 1023 30.21 852 25.16 6.4 43.5 50 -3.2 26.2
21:10 1023 30.21 852 25.16 6.2 43.2 51 -3.2 26.3
21:15 1023 30.21 852 25.16 6.2 43.1 52 -3.1 26.5
21:20 1023 30.21 852 25.16 6.1 43 51 -3.4 25.9
21:25 1023 30.21 852 25.16 6.2 43.1 50 -3.4 25.9
21:30 1023 30.21 852 25.16 6.1 43 50 -3.5 25.7
21:35 1023 30.21 852 25.16 5.9 42.7 51 -3.4 25.9
21:40 1023 30.21 852 25.16 5.8 42.5 51 -3.6 25.5
21:45 1023 30.21 852 25.16 5.8 42.4 50 -3.8 25.1
21:50 1023 30.21 852 25.16 6.3 43.3 46 -4.4 24
21:55 1023 30.21 852 25.16 6.8 44.3 45 -4.2 24.4
22:00 1023 30.21 852 25.16 6.5 43.8 47 -4 24.8
22:05 1023 30.21 852 25.16 6.3 43.4 47 -4 24.7
22:10 1023 30.21 852 25.16 6.4 43.6 47 -4 24.9
22:15 1023 30.21 852 25.16 6.3 43.3 48 -3.9 25.1
22:20 1023 30.21 852 25.16 6.2 43.2 47 -4.1 24.6
22:25 1023 30.21 852 25.16 6.3 43.4 48 -3.9 25.1
22:30 1023 30.21 852 25.16 6.2 43.1 48 -4 24.8
22:35 1023 30.21 852 25.16 6.3 43.3 47 -4 24.7
22:40 1023 30.21 852 25.16 6.1 42.9 49 -3.8 25.1
22:45 1023 30.21 852 25.16 5.8 42.4 49 -4.2 24.4
22:50 1023 30.21 852 25.16 5.9 42.7 48 -4.3 24.3
22:55 1023 30.21 852 25.16 6 42.9 51 -3.4 25.9
23:00 1023 30.21 852 25.16 6.1 42.9 46 -4.6 23.8
23:05 1023 30.21 852 25.16 6.2 43.1 48 -4.1 24.5
23:10 1023 30.21 852 25.16 5.9 42.6 48 -4.3 24.2
23:15 1023 30.21 852 25.16 5.9 42.6 48 -4.4 24.1
23:20 1023 30.21 852 25.16 5.8 42.5 47 -4.7 23.6
23:25 1023 30.21 852 25.16 6 42.8 48 -4.3 24.3
23:30 1023 30.21 852 25.16 5.8 42.4 49 -4.2 24.4
23:35 1023 30.21 852 25.16 5.3 41.6 50 -4.2 24.5
23:40 1023 30.21 852 25.16 5.1 41.1 51 -4.2 24.5
23:45 1023 30.21 852 25.16 4.7 40.4 53 -4.1 24.6
23:50 1022 30.18 852 25.16 4.3 39.7 54 -4.2 24.4
23:55 1022 30.18 852 25.16 4.2 39.6 54 -4.3 24.3
24:00 1022 30.18 852 25.16 4.2 39.6 53 -4.6 23.8